Time;durP1;ratioP1;P1;durP2;ratioP2;P2;SDS_P1;SDS_P2;PMS_P1;PMS_P2;Temp;Humidity;BMP_temperature;BMP_pressure;BME280_temperature;BME280_humidity;BME280_pressure;Samples;Min_cycle;Max_cycle;Signal;HPM_P1;HPM_P2
2023/07/24 00:00:51;;;;;;;;;;;16.80;99.90;;;;;;5077377;28;19924;-75
2023/07/24 00:03:17;;;;;;;;;;;16.80;99.90;;;;;;5111514;28;19944;-75
2023/07/24 00:05:42;;;;;;;;;;;16.70;99.90;;;;;;5112442;28;19920;-78
2023/07/24 00:08:08;;;;;;;;;;;16.80;99.90;;;;;;5111650;28;19934;-80
2023/07/24 00:10:33;;;;;;;;;;;16.70;99.90;;;;;;5095130;28;19942;-76
2023/07/24 00:12:59;;;;;;;;;;;16.70;99.90;;;;;;5094776;28;19931;-78
2023/07/24 00:15:25;;;;;;;;;;;16.70;99.90;;;;;;5112052;28;20396;-78
2023/07/24 00:17:50;;;;;;;;;;;16.70;99.90;;;;;;5111390;28;19924;-79
2023/07/24 00:20:16;;;;;;;;;;;16.70;99.90;;;;;;5111897;28;20459;-74
2023/07/24 00:22:47;;;;;;;;;;;16.60;99.90;;;;;;5112192;28;19969;-77
2023/07/24 00:25:14;;;;;;;;;;;16.70;99.90;;;;;;5094718;28;20257;-76
2023/07/24 00:27:40;;;;;;;;;;;16.70;99.90;;;;;;5094621;28;19953;-73
2023/07/24 00:30:06;;;;;;;;;;;16.70;99.90;;;;;;5111327;28;19920;-77
2023/07/24 00:32:31;;;;;;;;;;;16.70;99.90;;;;;;5111597;28;19920;-78
2023/07/24 00:34:57;;;;;;;;;;;16.70;99.90;;;;;;5110890;28;19920;-76
2023/07/24 00:37:23;;;;;;;;;;;16.70;99.90;;;;;;5112851;28;19966;-79
2023/07/24 00:39:49;;;;;;;;;;;16.60;99.90;;;;;;5111574;28;19920;-79
2023/07/24 00:42:14;;;;;;;;;;;16.60;99.90;;;;;;5094388;28;19938;-75
2023/07/24 00:44:41;;;;;;;;;;;16.50;99.90;;;;;;5111263;28;19928;-78
2023/07/24 00:47:06;;;;;;;;;;;16.40;99.90;;;;;;5076773;28;20524;-79
2023/07/24 00:49:32;;;;;;;;;;;16.40;99.90;;;;;;5111567;28;20345;-79
2023/07/24 00:52:00;;;;;;;;;;;16.40;99.90;;;;;;5110147;28;20690;-77
2023/07/24 00:54:29;;;;;;;;;;;16.30;99.90;;;;;;5112184;28;19975;-80
2023/07/24 00:56:56;;;;;;;;;;;16.30;99.90;;;;;;5110419;28;19962;-78
2023/07/24 00:59:21;;;;;;;;;;;16.30;99.90;;;;;;5111351;28;19923;-77
2023/07/24 01:01:47;;;;;;;;;;;16.30;99.90;;;;;;5093757;28;20296;-76
2023/07/24 01:04:13;;;;;;;;;;;16.20;99.90;;;;;;5093689;28;20383;-77
2023/07/24 01:06:39;;;;;;;;;;;16.20;99.90;;;;;;5111785;28;19957;-76
2023/07/24 01:09:05;;;;;;;;;;;16.10;99.90;;;;;;5110646;28;19928;-76
2023/07/24 01:11:39;;;;;;;;;;;16.10;99.90;;;;;;5110609;28;20003;-76
2023/07/24 01:14:21;;;;;;;;;;;16.10;99.90;;;;;;5110483;28;20367;-75
2023/07/24 01:16:47;;;;;;;;;;;16.00;99.90;;;;;;5110446;28;19920;-75
2023/07/24 01:19:20;;;;;;;;;;;16.00;99.90;;;;;;5111472;28;19929;-78
2023/07/24 01:21:52;;;;;;;;;;;16.00;99.90;;;;;;5110611;28;19924;-80
2023/07/24 01:24:31;;;;;;;;;;;16.00;99.90;;;;;;5111120;28;19923;-78
2023/07/24 01:26:56;;;;;;;;;;;15.90;99.90;;;;;;5110496;28;20248;-77
2023/07/24 01:29:23;;;;;;;;;;;15.90;99.90;;;;;;5098892;28;19928;-76
2023/07/24 01:31:48;;;;;;;;;;;15.90;99.90;;;;;;5090461;28;19920;-79
2023/07/24 01:34:14;;;;;;;;;;;15.80;99.90;;;;;;5089343;28;20674;-77
2023/07/24 01:36:39;;;;;;;;;;;15.80;99.90;;;;;;5090055;28;20359;-77
2023/07/24 01:39:06;;;;;;;;;;;15.80;99.90;;;;;;5072849;28;19927;-77
2023/07/24 01:41:32;;;;;;;;;;;15.80;99.90;;;;;;5090248;28;19924;-76
2023/07/24 01:44:01;;;;;;;;;;;15.80;99.90;;;;;;5073224;28;19969;-76
2023/07/24 01:46:28;;;;;;;;;;;15.80;99.90;;;;;;5073688;28;20377;-78
2023/07/24 01:48:53;;;;;;;;;;;15.70;99.90;;;;;;5090159;28;20297;-83
2023/07/24 01:51:19;;;;;;;;;;;15.80;99.90;;;;;;5108980;28;19927;-77
2023/07/24 01:53:44;;;;;;;;;;;15.80;99.90;;;;;;5094067;28;19928;-77
2023/07/24 01:56:11;;;;;;;;;;;15.70;99.90;;;;;;5110281;28;19954;-77
2023/07/24 01:58:39;;;;;;;;;;;15.70;99.90;;;;;;5112060;28;19955;-77
2023/07/24 02:01:06;;;;;;;;;;;15.70;99.90;;;;;;5076562;28;20391;-79
2023/07/24 02:03:32;;;;;;;;;;;15.80;99.90;;;;;;5094643;28;20010;-76
2023/07/24 02:05:57;;;;;;;;;;;15.80;99.90;;;;;;5113969;28;20030;-79
2023/07/24 02:08:24;;;;;;;;;;;15.90;99.90;;;;;;5113154;28;20353;-77
2023/07/24 02:10:50;;;;;;;;;;;16.00;99.90;;;;;;5113362;28;20022;-78
2023/07/24 02:13:16;;;;;;;;;;;16.00;99.90;;;;;;5080296;28;20299;-80
2023/07/24 02:15:41;;;;;;;;;;;16.10;99.90;;;;;;5114416;28;19919;-75
2023/07/24 02:18:13;;;;;;;;;;;16.10;99.90;;;;;;5114108;28;19964;-77
2023/07/24 02:20:38;;;;;;;;;;;16.10;99.90;;;;;;5114102;28;19924;-79
2023/07/24 02:23:04;;;;;;;;;;;16.20;99.90;;;;;;5113624;28;19928;-76
2023/07/24 02:25:29;;;;;;;;;;;16.20;99.90;;;;;;5113397;28;19920;-76
2023/07/24 02:27:55;;;;;;;;;;;16.20;99.90;;;;;;5096811;28;20300;-76
2023/07/24 02:30:21;;;;;;;;;;;16.10;99.90;;;;;;5114603;28;20014;-79
2023/07/24 02:32:46;;;;;;;;;;;16.10;99.90;;;;;;5113346;28;19924;-77
2023/07/24 02:35:12;;;;;;;;;;;16.00;99.90;;;;;;5112835;28;19973;-77
2023/07/24 02:37:39;;;;;;;;;;;16.00;99.90;;;;;;5113428;28;19926;-77
2023/07/24 02:40:05;;;;;;;;;;;16.00;99.90;;;;;;5112821;28;19928;-78
2023/07/24 02:42:30;;;;;;;;;;;15.90;99.90;;;;;;5113100;28;20008;-79
2023/07/24 02:44:56;;;;;;;;;;;15.90;99.90;;;;;;5095864;28;19931;-76
2023/07/24 02:47:21;;;;;;;;;;;15.80;99.90;;;;;;5112804;28;19924;-77
2023/07/24 02:49:47;;;;;;;;;;;15.80;99.90;;;;;;5113431;28;20266;-80
2023/07/24 02:52:12;;;;;;;;;;;15.80;99.90;;;;;;5114678;28;19922;-78
2023/07/24 02:54:38;;;;;;;;;;;15.70;99.90;;;;;;5113231;28;19982;-79
2023/07/24 02:57:04;;;;;;;;;;;15.80;99.90;;;;;;5113530;28;19927;-77
2023/07/24 02:59:31;;;;;;;;;;;15.80;99.90;;;;;;5096388;28;20300;-78
2023/07/24 03:01:57;;;;;;;;;;;15.90;99.90;;;;;;5096157;28;19978;-77
2023/07/24 03:04:23;;;;;;;;;;;16.00;99.90;;;;;;5112329;28;19955;-76
2023/07/24 03:06:54;;;;;;;;;;;16.10;99.90;;;;;;5112948;28;19930;-79
2023/07/24 03:09:20;;;;;;;;;;;16.10;99.90;;;;;;5112025;28;20301;-75
2023/07/24 03:11:47;;;;;;;;;;;16.10;99.90;;;;;;5113141;28;19924;-77
2023/07/24 03:14:12;;;;;;;;;;;16.20;99.90;;;;;;5113439;28;20365;-78
2023/07/24 03:16:38;;;;;;;;;;;16.20;99.90;;;;;;5095262;28;19927;-79
2023/07/24 03:19:03;;;;;;;;;;;16.20;99.90;;;;;;5112506;28;20585;-78
2023/07/24 03:21:32;;;;;;;;;;;16.30;99.90;;;;;;5112638;28;19920;-79
2023/07/24 03:23:57;;;;;;;;;;;16.30;99.90;;;;;;5112007;28;19927;-77
2023/07/24 03:26:23;;;;;;;;;;;16.30;99.90;;;;;;5112020;28;19920;-79
2023/07/24 03:28:54;;;;;;;;;;;16.30;99.90;;;;;;5096325;28;19934;-77
2023/07/24 03:31:20;;;;;;;;;;;16.40;99.90;;;;;;5112294;28;19972;-76
2023/07/24 03:33:45;;;;;;;;;;;16.40;99.90;;;;;;5111790;28;19923;-77
2023/07/24 03:36:11;;;;;;;;;;;16.40;99.90;;;;;;5111994;28;19924;-79
2023/07/24 03:38:37;;;;;;;;;;;16.40;99.90;;;;;;5113316;28;19920;-76
2023/07/24 03:41:03;;;;;;;;;;;16.50;99.90;;;;;;5111927;28;19985;-79
2023/07/24 03:43:30;;;;;;;;;;;16.50;99.90;;;;;;5111254;28;19920;-78
2023/07/24 03:45:55;;;;;;;;;;;16.50;99.90;;;;;;5093695;28;19934;-77
2023/07/24 03:48:21;;;;;;;;;;;16.50;99.90;;;;;;5111543;28;20006;-77
2023/07/24 03:50:46;;;;;;;;;;;16.50;99.90;;;;;;5111761;28;19923;-75
2023/07/24 03:53:13;;;;;;;;;;;16.50;99.90;;;;;;5112150;28;20326;-76
2023/07/24 03:55:39;;;;;;;;;;;16.60;99.90;;;;;;5111564;28;19924;-76
2023/07/24 03:58:05;;;;;;;;;;;16.60;99.90;;;;;;5112172;28;19924;-78
2023/07/24 04:00:30;;;;;;;;;;;16.60;99.90;;;;;;5112781;28;19953;-79
2023/07/24 04:02:56;;;;;;;;;;;16.60;99.90;;;;;;5111911;28;19928;-78
2023/07/24 04:05:21;;;;;;;;;;;16.60;99.90;;;;;;5112997;27;19920;-78
2023/07/24 04:07:47;;;;;;;;;;;16.70;99.90;;;;;;5094502;28;20388;-78
2023/07/24 04:10:12;;;;;;;;;;;16.70;99.90;;;;;;5094418;28;19954;-76
2023/07/24 04:12:38;;;;;;;;;;;16.70;99.90;;;;;;5094944;28;19923;-77
2023/07/24 04:15:04;;;;;;;;;;;16.70;99.90;;;;;;5111877;28;19969;-76
2023/07/24 04:17:30;;;;;;;;;;;16.70;99.90;;;;;;5110997;28;19924;-77
2023/07/24 04:19:55;;;;;;;;;;;16.70;99.90;;;;;;5111690;28;19923;-76
2023/07/24 04:22:21;;;;;;;;;;;16.70;99.90;;;;;;5094000;28;19968;-79
2023/07/24 04:24:46;;;;;;;;;;;16.70;99.90;;;;;;5111601;28;19924;-75
2023/07/24 04:27:12;;;;;;;;;;;16.70;99.90;;;;;;5111742;28;19971;-76
2023/07/24 04:29:38;;;;;;;;;;;16.80;99.90;;;;;;5111185;28;20372;-77
2023/07/24 04:32:03;;;;;;;;;;;16.70;99.90;;;;;;5111165;28;20406;-78
2023/07/24 04:34:29;;;;;;;;;;;16.70;99.90;;;;;;5110611;28;19966;-79
2023/07/24 04:36:56;;;;;;;;;;;16.70;99.90;;;;;;5111701;28;19930;-78
2023/07/24 04:39:21;;;;;;;;;;;16.70;99.90;;;;;;5094545;28;19939;-76
2023/07/24 04:41:47;;;;;;;;;;;16.70;99.90;;;;;;5094145;28;20537;-77
2023/07/24 04:44:13;;;;;;;;;;;16.70;99.90;;;;;;5111320;28;19920;-78
2023/07/24 04:46:38;;;;;;;;;;;16.70;99.90;;;;;;5094138;28;19924;-81
2023/07/24 04:49:04;;;;;;;;;;;16.80;99.90;;;;;;5110805;28;19923;-78
2023/07/24 04:51:29;;;;;;;;;;;16.80;99.90;;;;;;5111254;28;19959;-76
2023/07/24 04:53:55;;;;;;;;;;;16.80;99.90;;;;;;5110965;28;19923;-80
2023/07/24 04:56:20;;;;;;;;;;;16.80;99.90;;;;;;5110524;28;20060;-77
2023/07/24 04:58:46;;;;;;;;;;;16.80;99.90;;;;;;5111340;28;19924;-78
2023/07/24 05:01:13;;;;;;;;;;;16.80;99.90;;;;;;5094102;28;19931;-79
2023/07/24 05:03:38;;;;;;;;;;;16.80;99.90;;;;;;5111282;28;20057;-78
2023/07/24 05:06:04;;;;;;;;;;;16.80;99.90;;;;;;5110656;28;20010;-79
2023/07/24 05:08:29;;;;;;;;;;;16.80;99.90;;;;;;5110965;28;19927;-76
2023/07/24 05:10:59;;;;;;;;;;;16.80;99.90;;;;;;5113218;28;19989;-79
2023/07/24 05:13:25;;;;;;;;;;;16.80;99.90;;;;;;5110746;28;19924;-77
2023/07/24 05:15:51;;;;;;;;;;;16.90;99.90;;;;;;5110946;28;20007;-76
2023/07/24 05:18:20;;;;;;;;;;;16.90;99.90;;;;;;5112247;28;20634;-78
2023/07/24 05:20:52;;;;;;;;;;;17.00;99.90;;;;;;5094051;28;20007;-80
2023/07/24 05:23:21;;;;;;;;;;;17.00;99.90;;;;;;5111688;28;19920;-77
2023/07/24 05:25:47;;;;;;;;;;;17.00;99.90;;;;;;5093749;28;19919;-76
2023/07/24 05:28:12;;;;;;;;;;;17.10;99.90;;;;;;5110157;28;19943;-75
2023/07/24 05:30:38;;;;;;;;;;;17.10;99.90;;;;;;5093497;28;19971;-75
2023/07/24 05:33:03;;;;;;;;;;;17.20;99.90;;;;;;5111866;28;19994;-76
2023/07/24 05:35:32;;;;;;;;;;;17.20;99.90;;;;;;5110502;28;19963;-81
2023/07/24 05:37:58;;;;;;;;;;;17.20;99.90;;;;;;5110609;28;19967;-74
2023/07/24 05:40:23;;;;;;;;;;;17.30;99.90;;;;;;5097426;28;19951;-79
2023/07/24 05:42:49;;;;;;;;;;;17.30;99.90;;;;;;5097681;28;19924;-75
2023/07/24 05:45:14;;;;;;;;;;;17.30;99.90;;;;;;5097724;28;19924;-75
2023/07/24 05:47:40;;;;;;;;;;;17.40;99.90;;;;;;5115368;27;20031;-80
2023/07/24 05:50:06;;;;;;;;;;;17.40;99.90;;;;;;5114638;28;19927;-78
2023/07/24 05:52:33;;;;;;;;;;;17.30;99.90;;;;;;5114511;28;19920;-79
2023/07/24 05:54:58;;;;;;;;;;;17.40;99.90;;;;;;5114046;28;19958;-77
2023/07/24 05:57:24;;;;;;;;;;;17.40;99.90;;;;;;5114116;28;20281;-78
2023/07/24 05:59:51;;;;;;;;;;;17.40;99.90;;;;;;5097574;28;19969;-75
2023/07/24 06:02:18;;;;;;;;;;;17.40;99.90;;;;;;5097152;28;19924;-78
2023/07/24 06:04:44;;;;;;;;;;;17.30;99.90;;;;;;5114636;28;19948;-78
2023/07/24 06:07:11;;;;;;;;;;;17.30;99.90;;;;;;5097702;28;19924;-78
2023/07/24 06:09:36;;;;;;;;;;;17.30;99.90;;;;;;5111413;28;20373;-77
2023/07/24 06:12:02;;;;;;;;;;;17.20;99.90;;;;;;5095757;28;20036;-78
2023/07/24 06:14:28;;;;;;;;;;;17.20;99.90;;;;;;5094017;28;20436;-78
2023/07/24 06:16:53;;;;;;;;;;;17.20;99.90;;;;;;5076403;28;19935;-78
2023/07/24 06:19:19;;;;;;;;;;;17.30;99.90;;;;;;5094138;28;20003;-76
2023/07/24 06:21:45;;;;;;;;;;;17.40;99.90;;;;;;5093390;28;19924;-78
2023/07/24 06:24:12;;;;;;;;;;;17.50;99.90;;;;;;5094951;28;19931;-80
2023/07/24 06:26:38;;;;;;;;;;;17.50;99.90;;;;;;5076211;28;20365;-76
2023/07/24 06:29:05;;;;;;;;;;;17.60;99.90;;;;;;5076245;28;19935;-77
2023/07/24 06:31:31;;;;;;;;;;;17.80;99.90;;;;;;5095074;28;19966;-82
2023/07/24 06:33:57;;;;;;;;;;;17.90;99.90;;;;;;5092968;28;19969;-76
2023/07/24 06:36:22;;;;;;;;;;;18.00;99.90;;;;;;5092954;28;20257;-77
2023/07/24 06:38:48;;;;;;;;;;;18.10;99.90;;;;;;5097746;28;19963;-76
2023/07/24 06:41:15;;;;;;;;;;;18.10;99.90;;;;;;5113650;28;20654;-75
2023/07/24 06:43:41;;;;;;;;;;;18.20;99.90;;;;;;5113241;28;19926;-76
2023/07/24 06:46:07;;;;;;;;;;;18.20;99.90;;;;;;5113235;28;20006;-80
2023/07/24 06:48:32;;;;;;;;;;;18.30;99.90;;;;;;5095727;28;20031;-78
2023/07/24 06:51:01;;;;;;;;;;;18.30;99.90;;;;;;5113607;27;20012;-77
2023/07/24 06:53:26;;;;;;;;;;;18.30;99.90;;;;;;5112837;28;19919;-79
2023/07/24 06:55:52;;;;;;;;;;;18.30;99.90;;;;;;5096216;28;19968;-77
2023/07/24 06:58:19;;;;;;;;;;;18.40;99.90;;;;;;5096618;28;19920;-79
2023/07/24 07:00:44;;;;;;;;;;;18.40;99.90;;;;;;5112897;28;19934;-77
2023/07/24 07:03:10;;;;;;;;;;;18.40;99.90;;;;;;5113740;28;19923;-76
2023/07/24 07:05:37;;;;;;;;;;;18.50;99.90;;;;;;5111399;28;19966;-78
2023/07/24 07:08:03;;;;;;;;;;;18.50;99.90;;;;;;5092592;28;19953;-79
2023/07/24 07:10:30;;;;;;;;;;;18.70;99.90;;;;;;5075200;28;20366;-76
2023/07/24 07:12:56;;;;;;;;;;;18.70;99.90;;;;;;5092001;28;19920;-78
2023/07/24 07:15:21;;;;;;;;;;;18.80;99.90;;;;;;5092475;28;19927;-77
2023/07/24 07:17:48;;;;;;;;;;;18.90;99.90;;;;;;5075298;28;20454;-80
2023/07/24 07:20:17;;;;;;;;;;;19.00;99.90;;;;;;5075285;28;19934;-78
2023/07/24 07:22:42;;;;;;;;;;;19.00;99.90;;;;;;5092797;28;19920;-78
2023/07/24 07:25:08;;;;;;;;;;;19.00;99.90;;;;;;5094805;27;20374;-79
2023/07/24 07:27:35;;;;;;;;;;;19.00;99.90;;;;;;5092302;28;19924;-79
2023/07/24 07:30:01;;;;;;;;;;;19.00;99.90;;;;;;5092134;28;20012;-79
2023/07/24 07:32:27;;;;;;;;;;;19.00;99.90;;;;;;5091621;28;19960;-75
2023/07/24 07:34:52;;;;;;;;;;;19.00;99.90;;;;;;5074878;28;19920;-75
2023/07/24 07:37:19;;;;;;;;;;;19.00;99.90;;;;;;5091802;28;19998;-81
2023/07/24 07:39:44;;;;;;;;;;;19.10;99.90;;;;;;5091464;28;19924;-76
2023/07/24 07:42:10;;;;;;;;;;;19.10;99.90;;;;;;5075239;28;19926;-76
2023/07/24 07:44:36;;;;;;;;;;;19.20;99.90;;;;;;5091052;28;20385;-76
2023/07/24 07:47:01;;;;;;;;;;;19.20;99.90;;;;;;5091526;28;20031;-76
2023/07/24 07:49:27;;;;;;;;;;;19.20;99.90;;;;;;5094665;28;19973;-80
2023/07/24 07:51:53;;;;;;;;;;;19.30;99.90;;;;;;5095350;28;20384;-80
2023/07/24 07:54:18;;;;;;;;;;;19.30;99.90;;;;;;5112126;28;19967;-77
2023/07/24 07:56:45;;;;;;;;;;;19.40;99.90;;;;;;5110657;28;19924;-75
2023/07/24 07:59:11;;;;;;;;;;;19.50;99.90;;;;;;5112015;28;19924;-80
2023/07/24 08:01:39;;;;;;;;;;;19.60;99.90;;;;;;5110816;28;19923;-77
2023/07/24 08:04:05;;;;;;;;;;;19.70;99.90;;;;;;5111451;28;19920;-78
2023/07/24 08:06:30;;;;;;;;;;;19.90;99.90;;;;;;5111580;28;19989;-78
2023/07/24 08:08:56;;;;;;;;;;;20.10;99.90;;;;;;5112257;28;19934;-78
2023/07/24 08:11:21;;;;;;;;;;;20.20;99.90;;;;;;5112273;28;20010;-76
2023/07/24 08:13:47;;;;;;;;;;;20.20;99.90;;;;;;5113431;28;19958;-79
2023/07/24 08:16:20;;;;;;;;;;;20.20;99.90;;;;;;5112347;28;20340;-80
2023/07/24 08:18:46;;;;;;;;;;;20.30;99.90;;;;;;5111373;28;19990;-76
2023/07/24 08:21:15;;;;;;;;;;;20.30;99.90;;;;;;5112748;28;19969;-74
2023/07/24 08:23:41;;;;;;;;;;;20.30;99.90;;;;;;5111270;28;19927;-76
2023/07/24 08:26:07;;;;;;;;;;;20.20;99.90;;;;;;5111501;28;19923;-78
2023/07/24 08:28:34;;;;;;;;;;;20.30;99.90;;;;;;5111044;28;20258;-76
2023/07/24 08:31:03;;;;;;;;;;;20.40;99.90;;;;;;5112249;27;19966;-76
2023/07/24 08:33:29;;;;;;;;;;;20.40;99.90;;;;;;5094193;28;19927;-76
2023/07/24 08:36:13;;;;;;;;;;;20.30;99.90;;;;;;5111655;28;19924;-77
2023/07/24 08:38:40;;;;;;;;;;;20.30;99.90;;;;;;5111073;28;19942;-78
2023/07/24 08:41:10;;;;;;;;;;;20.20;99.90;;;;;;5095104;28;19919;-76
2023/07/24 08:43:38;;;;;;;;;;;20.20;99.90;;;;;;5111086;28;19927;-80
2023/07/24 08:46:06;;;;;;;;;;;20.20;99.90;;;;;;5094693;28;19933;-76
2023/07/24 08:48:33;;;;;;;;;;;20.10;99.90;;;;;;5094103;28;19924;-81
2023/07/24 08:50:59;;;;;;;;;;;20.20;99.90;;;;;;5111379;28;20292;-77
2023/07/24 08:53:28;;;;;;;;;;;20.20;99.90;;;;;;5113033;28;19930;-77
2023/07/24 08:55:54;;;;;;;;;;;20.10;99.90;;;;;;5111559;28;19924;-81
2023/07/24 08:58:20;;;;;;;;;;;20.00;99.90;;;;;;5111847;28;19942;-75
2023/07/24 09:00:47;;;;;;;;;;;20.10;99.90;;;;;;5112242;28;20268;-82
2023/07/24 09:03:13;;;;;;;;;;;20.20;99.90;;;;;;5111347;28;19930;-80
2023/07/24 09:05:38;;;;;;;;;;;20.20;99.90;;;;;;5111378;28;19920;-77
2023/07/24 09:08:11;;;;;;;;;;;20.30;99.90;;;;;;5111403;28;19973;-78
2023/07/24 09:10:37;;;;;;;;;;;20.40;99.90;;;;;;5111618;28;19943;-76
2023/07/24 09:13:03;;;;;;;;;;;20.40;99.90;;;;;;5111234;28;19919;-77
2023/07/24 09:15:41;;;;;;;;;;;20.40;99.90;;;;;;5111636;28;20445;-78
2023/07/24 09:18:07;;;;;;;;;;;20.40;99.90;;;;;;5093919;28;19923;-79
2023/07/24 09:20:40;;;;;;;;;;;20.40;99.90;;;;;;5110885;28;20332;-76
2023/07/24 09:23:06;;;;;;;;;;;20.40;99.90;;;;;;5111368;28;19927;-78
2023/07/24 09:25:32;;;;;;;;;;;20.50;99.90;;;;;;5094880;28;19927;-82
2023/07/24 09:27:58;;;;;;;;;;;20.60;99.90;;;;;;5110500;28;20020;-77
2023/07/24 09:30:27;;;;;;;;;;;20.80;99.90;;;;;;5112376;28;19920;-79
2023/07/24 09:32:52;;;;;;;;;;;20.90;99.90;;;;;;5093685;28;19924;-82
2023/07/24 09:35:18;;;;;;;;;;;21.00;99.90;;;;;;5110910;28;19924;-77
2023/07/24 09:37:45;;;;;;;;;;;21.00;99.90;;;;;;5110403;28;19920;-77
2023/07/24 09:40:11;;;;;;;;;;;21.00;99.90;;;;;;5093840;28;19926;-80
2023/07/24 09:42:37;;;;;;;;;;;21.10;99.90;;;;;;5093786;28;19965;-77
2023/07/24 09:45:03;;;;;;;;;;;;;;;;;;5111123;28;20628;-75
2023/07/24 09:47:29;;;;;;;;;;;21.40;99.90;;;;;;5110894;28;19969;-79
2023/07/24 09:49:55;;;;;;;;;;;21.60;99.90;;;;;;5111253;28;20010;-77
2023/07/24 09:52:23;;;;;;;;;;;21.70;99.90;;;;;;5111489;28;20421;-75
2023/07/24 09:54:49;;;;;;;;;;;;;;;;;;5110401;28;19976;-76
2023/07/24 09:57:16;;;;;;;;;;;;;;;;;;5110161;28;19927;-75
2023/07/24 09:59:42;;;;;;;;;;;;;;;;;;5111318;28;20238;-78
2023/07/24 10:02:11;;;;;;;;;;;22.50;99.90;;;;;;5112015;28;19924;-80
2023/07/24 10:04:37;;;;;;;;;;;22.30;99.90;;;;;;5110407;28;19927;-78
2023/07/24 10:07:04;;;;;;;;;;;22.30;99.90;;;;;;5110045;28;20301;-77
2023/07/24 10:09:30;;;;;;;;;;;22.50;99.90;;;;;;5110342;28;19928;-75
2023/07/24 10:11:57;;;;;;;;;;;22.70;99.90;;;;;;5110057;28;19920;-80
2023/07/24 10:14:22;;;;;;;;;;;23.10;99.90;;;;;;5076041;28;19927;-81
2023/07/24 10:16:50;;;;;;;;;;;23.30;99.90;;;;;;5109256;28;19921;-83
2023/07/24 10:19:16;;;;;;;;;;;23.30;99.90;;;;;;5110038;28;20280;-78
2023/07/24 10:21:46;;;;;;;;;;;23.00;99.90;;;;;;5109959;28;19919;-77
2023/07/24 10:24:12;;;;;;;;;;;22.90;99.90;;;;;;5111010;28;20076;-80
2023/07/24 10:26:37;;;;;;;;;;;22.60;99.90;;;;;;5113726;28;20042;-76
2023/07/24 10:29:03;;;;;;;;;;;22.40;99.90;;;;;;5096880;28;19930;-78
2023/07/24 10:31:32;;;;;;;;;;;22.40;99.90;;;;;;5113687;28;19919;-78
2023/07/24 10:34:06;;;;;;;;;;;22.70;99.90;;;;;;5113367;28;19974;-78
2023/07/24 10:36:36;;;;;;;;;;;23.00;99.90;;;;;;5114213;28;20273;-79
2023/07/24 10:39:02;;;;;;;;;;;23.20;99.90;;;;;;5113875;28;20289;-81
2023/07/24 10:41:35;;;;;;;;;;;23.30;99.90;;;;;;5079849;28;20360;-77
2023/07/24 10:44:00;;;;;;;;;;;23.30;99.90;;;;;;5113527;28;19976;-76
2023/07/24 10:46:35;;;;;;;;;;;23.20;99.90;;;;;;5113667;28;19919;-83
2023/07/24 10:49:02;;;;;;;;;;;22.90;99.90;;;;;;5096379;28;19988;-75
2023/07/24 10:51:29;;;;;;;;;;;22.80;99.90;;;;;;5104972;28;19922;-79
2023/07/24 10:53:57;;;;;;;;;;;22.70;99.90;;;;;;5094059;28;20322;-80
2023/07/24 10:56:23;;;;;;;;;;;22.30;99.90;;;;;;5092699;28;20011;-77
2023/07/24 10:58:48;;;;;;;;;;;21.90;99.90;;;;;;5093106;28;20015;-76
2023/07/24 11:01:14;;;;;;;;;;;21.60;99.90;;;;;;5094076;28;20022;-76
2023/07/24 11:03:40;;;;;;;;;;;21.30;99.90;;;;;;5076143;28;19920;-79
2023/07/24 11:06:13;;;;;;;;;;;21.00;99.90;;;;;;5076081;28;19924;-77
2023/07/24 11:08:40;;;;;;;;;;;20.80;99.90;;;;;;5092912;28;20408;-78
2023/07/24 11:11:12;;;;;;;;;;;20.60;99.90;;;;;;5093675;28;19932;-76
2023/07/24 11:13:37;;;;;;;;;;;20.60;99.90;;;;;;5093423;28;19924;-77
2023/07/24 11:16:05;;;;;;;;;;;20.70;99.90;;;;;;5093056;28;19999;-77
2023/07/24 11:18:31;;;;;;;;;;;20.80;99.90;;;;;;5075902;28;19924;-81
2023/07/24 11:20:56;;;;;;;;;;;20.80;99.90;;;;;;5093062;28;20300;-79
2023/07/24 11:23:22;;;;;;;;;;;20.80;99.90;;;;;;5092820;28;19942;-80
2023/07/24 11:25:52;;;;;;;;;;;20.90;99.90;;;;;;5092702;28;20018;-75
2023/07/24 11:28:17;;;;;;;;;;;20.80;99.90;;;;;;5075716;28;19924;-82
2023/07/24 11:30:44;;;;;;;;;;;20.70;99.90;;;;;;5075623;28;19969;-78
2023/07/24 11:33:11;;;;;;;;;;;20.80;99.90;;;;;;5093072;28;19927;-82
2023/07/24 11:35:39;;;;;;;;;;;20.80;99.90;;;;;;5093041;28;19924;-75
2023/07/24 11:38:05;;;;;;;;;;;20.90;99.90;;;;;;5094717;28;19931;-78
2023/07/24 11:40:37;;;;;;;;;;;21.00;99.90;;;;;;5092915;28;19924;-78
2023/07/24 11:43:03;;;;;;;;;;;21.10;99.90;;;;;;5092227;28;19920;-76
2023/07/24 11:45:30;;;;;;;;;;;21.10;99.90;;;;;;5092697;28;19972;-76
2023/07/24 11:47:56;;;;;;;;;;;21.20;99.90;;;;;;5092631;28;19928;-77
2023/07/24 11:50:22;;;;;;;;;;;21.40;99.90;;;;;;5103561;28;19923;-75
2023/07/24 11:52:51;;;;;;;;;;;21.70;99.90;;;;;;5095515;28;21826;-79
2023/07/24 11:55:20;;;;;;;;;;;22.20;99.90;;;;;;5096383;28;19962;-82
2023/07/24 11:57:59;;;;;;;;;;;22.40;99.90;;;;;;5112281;28;19924;-79
2023/07/24 12:00:25;;;;;;;;;;;22.50;99.90;;;;;;5095581;28;20272;-81
2023/07/24 12:02:50;;;;;;;;;;;22.40;99.90;;;;;;5112680;28;19924;-76
2023/07/24 12:05:17;;;;;;;;;;;22.30;99.90;;;;;;5095651;28;20671;-80
2023/07/24 12:07:46;;;;;;;;;;;22.40;99.90;;;;;;5112835;28;19919;-78
2023/07/24 12:10:12;;;;;;;;;;;22.60;99.90;;;;;;5095267;28;19969;-80
2023/07/24 12:12:44;;;;;;;;;;;22.70;99.90;;;;;;5112466;28;19930;-76
2023/07/24 12:15:11;;;;;;;;;;;22.60;99.90;;;;;;5113159;28;19981;-80
2023/07/24 12:17:37;;;;;;;;;;;22.50;99.90;;;;;;5113449;28;19920;-81
2023/07/24 12:20:08;;;;;;;;;;;22.10;99.90;;;;;;5112524;28;19930;-79
2023/07/24 12:22:35;;;;;;;;;;;21.80;99.90;;;;;;5113110;28;19920;-80
2023/07/24 12:25:01;;;;;;;;;;;21.30;99.90;;;;;;5094774;28;19920;-78
2023/07/24 12:27:27;;;;;;;;;;;20.70;99.90;;;;;;5112998;28;19923;-80
2023/07/24 12:29:54;;;;;;;;;;;20.20;99.90;;;;;;5095046;28;19924;-81
2023/07/24 12:32:23;;;;;;;;;;;19.60;99.90;;;;;;5113488;28;20562;-81
2023/07/24 12:34:49;;;;;;;;;;;19.20;99.90;;;;;;5095949;28;19924;-80
2023/07/24 12:37:27;;;;;;;;;;;18.90;99.90;;;;;;5113759;28;19927;-82
2023/07/24 12:39:52;;;;;;;;;;;18.70;99.90;;;;;;5112670;28;19920;-83
2023/07/24 12:42:18;;;;;;;;;;;18.70;99.90;;;;;;5112915;28;19919;-81
2023/07/24 12:44:45;;;;;;;;;;;18.60;99.90;;;;;;5081132;28;20396;-81
2023/07/24 12:47:11;;;;;;;;;;;18.60;99.90;;;;;;5092259;28;19931;-82
2023/07/24 12:49:37;;;;;;;;;;;18.50;99.90;;;;;;5079717;28;19928;-81
2023/07/24 12:52:03;;;;;;;;;;;18.60;99.90;;;;;;5078620;28;19976;-82
2023/07/24 12:54:39;;;;;;;;;;;18.50;99.90;;;;;;5113955;28;20444;-82
2023/07/24 12:57:08;;;;;;;;;;;18.50;99.90;;;;;;5112972;28;19990;-83
2023/07/24 12:59:34;;;;;;;;;;;18.40;99.90;;;;;;5096757;28;19930;-81
2023/07/24 13:02:01;;;;;;;;;;;18.40;99.90;;;;;;5112741;28;20347;-81
2023/07/24 13:04:30;;;;;;;;;;;18.40;99.90;;;;;;5112785;28;19924;-81
2023/07/24 13:06:55;;;;;;;;;;;18.40;99.90;;;;;;5112580;28;20358;-81
2023/07/24 13:09:24;;;;;;;;;;;18.50;99.90;;;;;;5114104;28;19923;-81
2023/07/24 13:11:51;;;;;;;;;;;18.60;99.90;;;;;;5078665;28;20018;-80
2023/07/24 13:14:18;;;;;;;;;;;18.70;99.90;;;;;;5111885;28;19920;-82
2023/07/24 13:16:43;;;;;;;;;;;18.90;99.90;;;;;;5111508;28;19923;-79
2023/07/24 13:19:09;;;;;;;;;;;19.10;99.90;;;;;;5095017;28;19927;-79
2023/07/24 13:21:35;;;;;;;;;;;19.20;99.90;;;;;;5111406;28;20611;-80
2023/07/24 13:24:03;;;;;;;;;;;19.30;99.90;;;;;;5094063;28;20377;-80
2023/07/24 13:26:29;;;;;;;;;;;19.40;99.90;;;;;;5110545;28;19924;-79
2023/07/24 13:28:54;;;;;;;;;;;19.60;99.90;;;;;;5110612;28;20292;-79
2023/07/24 13:31:21;;;;;;;;;;;19.70;99.90;;;;;;5110655;28;19920;-80
2023/07/24 13:33:47;;;;;;;;;;;19.80;99.90;;;;;;5110819;28;19927;-81
2023/07/24 13:36:14;;;;;;;;;;;20.00;99.90;;;;;;5093707;28;19920;-81
2023/07/24 13:38:40;;;;;;;;;;;20.30;99.90;;;;;;5111276;28;19969;-78
2023/07/24 13:41:06;;;;;;;;;;;20.50;99.90;;;;;;5077961;28;19927;-80
2023/07/24 13:43:32;;;;;;;;;;;20.60;99.90;;;;;;5074054;28;19920;-79
2023/07/24 13:45:58;;;;;;;;;;;20.70;99.90;;;;;;5090120;28;19920;-81
2023/07/24 13:48:24;;;;;;;;;;;20.80;99.90;;;;;;5090240;28;19931;-82
2023/07/24 13:50:50;;;;;;;;;;;20.60;99.90;;;;;;5106691;28;19920;-79
2023/07/24 13:53:18;;;;;;;;;;;20.30;99.90;;;;;;5110832;28;19920;-79
2023/07/24 13:55:45;;;;;;;;;;;20.10;99.90;;;;;;5093496;28;20460;-78
2023/07/24 13:58:11;;;;;;;;;;;19.90;99.90;;;;;;5110249;28;19942;-80
2023/07/24 14:00:37;;;;;;;;;;;19.80;99.90;;;;;;5113077;28;19930;-80
2023/07/24 14:03:03;;;;;;;;;;;19.70;99.90;;;;;;5097372;28;19930;-81
2023/07/24 14:05:28;;;;;;;;;;;19.60;99.90;;;;;;5116035;28;19923;-78
2023/07/24 14:07:54;;;;;;;;;;;19.50;99.90;;;;;;5116047;28;19927;-79
2023/07/24 14:10:19;;;;;;;;;;;19.40;99.90;;;;;;5114642;28;19927;-78
2023/07/24 14:12:46;;;;;;;;;;;19.30;99.90;;;;;;5081910;28;19923;-79
2023/07/24 14:15:12;;;;;;;;;;;19.20;99.90;;;;;;5080750;28;19920;-76